Terminal Aerodrome Forecast
Issued by NWS

Home | Current Version | Previous Version | Text Only | Print | Product List | Glossary On
Versions: 1 2 3 4 5 6 7 8 9 10 11 12 13 14 15 16 17 18 19 20 21 22 23 24 25 26 27 28 29 30 31 32 33 34 35 36 37 38 39 40 41 42 43 44 45 46 47 48 49 50
000
FTAK31 PANC 202217 AAA
TAFAGK
TAF AMD
PAGK 202217Z 2022/2118 VRB04KT 3SM -SN OVC025
      TEMPO 2022/2024 3/4SM -SN BR OVC015
     FM210000 VRB06KT 4SM -SN OVC020
     FM210400 VRB06KT P6SM BKN025 OVC060=

USA.gov is the U.S. government's official web portal to all federal, state and local government web resources and services.